sensor_id;sensor_type;location;lat;lon;timestamp;temperature;humidity
18511;DHT22;9384;48.044;11.616;2022-12-29T00:01:24;2.90;99.90
18511;DHT22;9384;48.044;11.616;2022-12-29T00:03:51;2.90;99.90
18511;DHT22;9384;48.044;11.616;2022-12-29T00:06:17;2.80;99.90
18511;DHT22;9384;48.044;11.616;2022-12-29T00:08:44;2.80;99.90
18511;DHT22;9384;48.044;11.616;2022-12-29T00:11:15;2.90;99.90
18511;DHT22;9384;48.044;11.616;2022-12-29T00:13:43;2.90;99.90
18511;DHT22;9384;48.044;11.616;2022-12-29T00:16:29;2.90;99.90
18511;DHT22;9384;48.044;11.616;2022-12-29T00:18:56;2.80;99.90
18511;DHT22;9384;48.044;11.616;2022-12-29T00:21:24;2.70;99.90
18511;DHT22;9384;48.044;11.616;2022-12-29T00:24:12;2.50;99.90
18511;DHT22;9384;48.044;11.616;2022-12-29T00:27:09;2.40;99.90
18511;DHT22;9384;48.044;11.616;2022-12-29T00:29:55;2.40;99.90
18511;DHT22;9384;48.044;11.616;2022-12-29T00:32:39;2.40;99.90
18511;DHT22;9384;48.044;11.616;2022-12-29T00:35:26;2.30;99.90
18511;DHT22;9384;48.044;11.616;2022-12-29T00:37:55;2.20;99.90
18511;DHT22;9384;48.044;11.616;2022-12-29T00:40:40;2.20;99.90
18511;DHT22;9384;48.044;11.616;2022-12-29T00:43:24;2.20;99.90
18511;DHT22;9384;48.044;11.616;2022-12-29T00:46:10;2.40;99.90
18511;DHT22;9384;48.044;11.616;2022-12-29T00:48:37;2.60;99.90
18511;DHT22;9384;48.044;11.616;2022-12-29T00:51:21;2.80;99.90
18511;DHT22;9384;48.044;11.616;2022-12-29T00:53:48;2.80;99.90
18511;DHT22;9384;48.044;11.616;2022-12-29T00:56:15;2.70;99.90
18511;DHT22;9384;48.044;11.616;2022-12-29T00:58:42;2.70;99.90
18511;DHT22;9384;48.044;11.616;2022-12-29T01:01:10;2.60;99.90
18511;DHT22;9384;48.044;11.616;2022-12-29T01:03:37;2.60;99.90
18511;DHT22;9384;48.044;11.616;2022-12-29T01:06:07;2.60;99.90
18511;DHT22;9384;48.044;11.616;2022-12-29T01:08:35;2.60;99.90
18511;DHT22;9384;48.044;11.616;2022-12-29T01:11:03;2.70;99.90
18511;DHT22;9384;48.044;11.616;2022-12-29T01:13:30;2.80;99.90
18511;DHT22;9384;48.044;11.616;2022-12-29T01:15:57;2.80;99.90
18511;DHT22;9384;48.044;11.616;2022-12-29T01:18:26;2.70;99.90
18511;DHT22;9384;48.044;11.616;2022-12-29T01:20:59;2.60;99.90
18511;DHT22;9384;48.044;11.616;2022-12-29T01:23:26;2.50;99.90
18511;DHT22;9384;48.044;11.616;2022-12-29T01:25:53;2.40;99.90
18511;DHT22;9384;48.044;11.616;2022-12-29T01:28:21;2.30;99.90
18511;DHT22;9384;48.044;11.616;2022-12-29T01:30:47;2.20;99.90
18511;DHT22;9384;48.044;11.616;2022-12-29T01:33:14;2.10;99.90
18511;DHT22;9384;48.044;11.616;2022-12-29T01:35:42;2.10;99.90
18511;DHT22;9384;48.044;11.616;2022-12-29T01:38:09;2.00;99.90
18511;DHT22;9384;48.044;11.616;2022-12-29T01:40:43;1.90;99.90
18511;DHT22;9384;48.044;11.616;2022-12-29T01:43:12;1.90;99.90
18511;DHT22;9384;48.044;11.616;2022-12-29T01:45:42;1.90;99.90
18511;DHT22;9384;48.044;11.616;2022-12-29T01:48:11;1.90;99.90
18511;DHT22;9384;48.044;11.616;2022-12-29T01:50:42;1.90;99.90
18511;DHT22;9384;48.044;11.616;2022-12-29T01:53:13;1.90;99.90
18511;DHT22;9384;48.044;11.616;2022-12-29T01:55:44;1.90;99.90
18511;DHT22;9384;48.044;11.616;2022-12-29T01:58:12;2.00;99.90
18511;DHT22;9384;48.044;11.616;2022-12-29T02:00:41;2.20;99.90
18511;DHT22;9384;48.044;11.616;2022-12-29T02:03:08;2.10;99.90
18511;DHT22;9384;48.044;11.616;2022-12-29T02:05:39;2.00;99.90
18511;DHT22;9384;48.044;11.616;2022-12-29T02:08:09;2.00;99.90
18511;DHT22;9384;48.044;11.616;2022-12-29T02:10:36;1.90;99.90
18511;DHT22;9384;48.044;11.616;2022-12-29T02:13:04;1.90;99.90
18511;DHT22;9384;48.044;11.616;2022-12-29T02:15:39;2.10;99.90
18511;DHT22;9384;48.044;11.616;2022-12-29T02:18:20;2.20;99.90
18511;DHT22;9384;48.044;11.616;2022-12-29T02:30:10;2.40;99.90
18511;DHT22;9384;48.044;11.616;2022-12-29T02:32:49;2.50;99.90
18511;DHT22;9384;48.044;11.616;2022-12-29T02:35:24;2.60;99.90
18511;DHT22;9384;48.044;11.616;2022-12-29T02:38:00;2.70;99.90
18511;DHT22;9384;48.044;11.616;2022-12-29T02:40:37;2.80;99.90
18511;DHT22;9384;48.044;11.616;2022-12-29T02:43:14;2.80;99.90
18511;DHT22;9384;48.044;11.616;2022-12-29T02:45:47;2.80;99.90
18511;DHT22;9384;48.044;11.616;2022-12-29T02:48:23;2.80;99.90
18511;DHT22;9384;48.044;11.616;2022-12-29T02:50:54;2.90;99.90
18511;DHT22;9384;48.044;11.616;2022-12-29T02:53:23;2.90;99.90
18511;DHT22;9384;48.044;11.616;2022-12-29T02:56:05;3.00;99.70
18511;DHT22;9384;48.044;11.616;2022-12-29T02:58:32;3.10;99.20
18511;DHT22;9384;48.044;11.616;2022-12-29T03:01:10;3.30;98.90
18511;DHT22;9384;48.044;11.616;2022-12-29T03:03:48;3.30;98.80
18511;DHT22;9384;48.044;11.616;2022-12-29T03:06:30;3.40;98.50
18511;DHT22;9384;48.044;11.616;2022-12-29T03:09:05;3.40;98.40
18511;DHT22;9384;48.044;11.616;2022-12-29T03:11:43;3.40;98.50
18511;DHT22;9384;48.044;11.616;2022-12-29T03:14:33;3.50;98.30
18511;DHT22;9384;48.044;11.616;2022-12-29T03:17:26;3.50;98.10
18511;DHT22;9384;48.044;11.616;2022-12-29T03:20:01;3.60;98.00
18511;DHT22;9384;48.044;11.616;2022-12-29T03:22:32;3.60;97.80
18511;DHT22;9384;48.044;11.616;2022-12-29T03:25:02;3.70;97.80
18511;DHT22;9384;48.044;11.616;2022-12-29T03:27:32;3.70;98.00
18511;DHT22;9384;48.044;11.616;2022-12-29T03:30:03;3.60;98.00
18511;DHT22;9384;48.044;11.616;2022-12-29T03:32:33;3.60;97.90
18511;DHT22;9384;48.044;11.616;2022-12-29T03:35:04;3.70;97.80
18511;DHT22;9384;48.044;11.616;2022-12-29T03:37:36;3.70;97.80
18511;DHT22;9384;48.044;11.616;2022-12-29T03:40:06;3.70;97.90
18511;DHT22;9384;48.044;11.616;2022-12-29T03:42:35;3.70;97.80
18511;DHT22;9384;48.044;11.616;2022-12-29T03:45:04;3.70;97.70
18511;DHT22;9384;48.044;11.616;2022-12-29T03:47:33;3.80;97.80
18511;DHT22;9384;48.044;11.616;2022-12-29T03:49:59;3.70;97.70
18511;DHT22;9384;48.044;11.616;2022-12-29T03:52:28;3.80;97.50
18511;DHT22;9384;48.044;11.616;2022-12-29T03:54:54;3.80;97.60
18511;DHT22;9384;48.044;11.616;2022-12-29T03:57:21;3.80;97.80
18511;DHT22;9384;48.044;11.616;2022-12-29T03:59:48;3.80;97.60
18511;DHT22;9384;48.044;11.616;2022-12-29T04:02:15;3.90;97.20
18511;DHT22;9384;48.044;11.616;2022-12-29T04:04:42;4.00;97.00
18511;DHT22;9384;48.044;11.616;2022-12-29T04:07:08;4.10;97.20
18511;DHT22;9384;48.044;11.616;2022-12-29T04:09:36;4.10;97.10
18511;DHT22;9384;48.044;11.616;2022-12-29T04:12:04;4.00;97.10
18511;DHT22;9384;48.044;11.616;2022-12-29T04:14:30;4.10;97.10
18511;DHT22;9384;48.044;11.616;2022-12-29T04:16:57;4.10;96.70
18511;DHT22;9384;48.044;11.616;2022-12-29T04:19:24;4.20;96.60
18511;DHT22;9384;48.044;11.616;2022-12-29T04:21:51;4.30;96.80
18511;DHT22;9384;48.044;11.616;2022-12-29T04:24:18;4.20;96.80
18511;DHT22;9384;48.044;11.616;2022-12-29T04:26:46;4.20;96.80
18511;DHT22;9384;48.044;11.616;2022-12-29T04:29:13;4.20;96.80
18511;DHT22;9384;48.044;11.616;2022-12-29T04:31:39;4.20;96.80
18511;DHT22;9384;48.044;11.616;2022-12-29T04:34:06;4.30;96.40
18511;DHT22;9384;48.044;11.616;2022-12-29T04:36:33;4.30;96.40
18511;DHT22;9384;48.044;11.616;2022-12-29T04:39:00;4.40;96.40
18511;DHT22;9384;48.044;11.616;2022-12-29T04:41:27;4.50;95.70
18511;DHT22;9384;48.044;11.616;2022-12-29T04:43:55;4.60;95.60
18511;DHT22;9384;48.044;11.616;2022-12-29T04:46:22;4.70;95.20
18511;DHT22;9384;48.044;11.616;2022-12-29T04:48:48;4.70;95.00
18511;DHT22;9384;48.044;11.616;2022-12-29T04:51:15;4.80;94.60
18511;DHT22;9384;48.044;11.616;2022-12-29T04:53:43;4.90;94.40
18511;DHT22;9384;48.044;11.616;2022-12-29T04:56:10;5.00;94.50
18511;DHT22;9384;48.044;11.616;2022-12-29T04:58:37;5.00;94.30
18511;DHT22;9384;48.044;11.616;2022-12-29T05:01:05;5.10;93.90
18511;DHT22;9384;48.044;11.616;2022-12-29T05:03:32;5.10;93.90
18511;DHT22;9384;48.044;11.616;2022-12-29T05:05:59;5.20;93.90
18511;DHT22;9384;48.044;11.616;2022-12-29T05:08:26;5.20;94.00
18511;DHT22;9384;48.044;11.616;2022-12-29T05:10:53;5.10;94.20
18511;DHT22;9384;48.044;11.616;2022-12-29T05:13:19;5.10;94.10
18511;DHT22;9384;48.044;11.616;2022-12-29T05:15:49;5.10;94.10
18511;DHT22;9384;48.044;11.616;2022-12-29T05:18:18;5.10;94.20
18511;DHT22;9384;48.044;11.616;2022-12-29T05:20:46;5.20;93.90
18511;DHT22;9384;48.044;11.616;2022-12-29T05:23:13;5.20;94.00
18511;DHT22;9384;48.044;11.616;2022-12-29T05:25:40;5.20;93.80
18511;DHT22;9384;48.044;11.616;2022-12-29T05:28:07;5.20;93.90
18511;DHT22;9384;48.044;11.616;2022-12-29T05:30:34;5.20;94.20
18511;DHT22;9384;48.044;11.616;2022-12-29T05:33:01;5.10;94.30
18511;DHT22;9384;48.044;11.616;2022-12-29T05:35:29;5.10;94.50
18511;DHT22;9384;48.044;11.616;2022-12-29T05:37:56;5.10;94.50
18511;DHT22;9384;48.044;11.616;2022-12-29T05:40:23;5.10;94.40
18511;DHT22;9384;48.044;11.616;2022-12-29T05:42:50;5.10;94.10
18511;DHT22;9384;48.044;11.616;2022-12-29T05:45:16;5.20;93.90
18511;DHT22;9384;48.044;11.616;2022-12-29T05:47:43;5.20;93.80
18511;DHT22;9384;48.044;11.616;2022-12-29T05:50:10;5.30;93.80
18511;DHT22;9384;48.044;11.616;2022-12-29T05:52:38;5.20;93.70
18511;DHT22;9384;48.044;11.616;2022-12-29T05:55:06;5.30;93.90
18511;DHT22;9384;48.044;11.616;2022-12-29T05:57:33;5.20;94.00
18511;DHT22;9384;48.044;11.616;2022-12-29T06:00:00;5.20;93.80
18511;DHT22;9384;48.044;11.616;2022-12-29T06:02:27;5.30;93.40
18511;DHT22;9384;48.044;11.616;2022-12-29T06:04:54;5.30;93.20
18511;DHT22;9384;48.044;11.616;2022-12-29T06:07:20;5.40;93.20
18511;DHT22;9384;48.044;11.616;2022-12-29T06:09:49;5.40;93.10
18511;DHT22;9384;48.044;11.616;2022-12-29T06:12:15;5.40;93.20
18511;DHT22;9384;48.044;11.616;2022-12-29T06:14:42;5.40;93.50
18511;DHT22;9384;48.044;11.616;2022-12-29T06:17:09;5.40;92.80
18511;DHT22;9384;48.044;11.616;2022-12-29T06:19:36;5.40;93.30
18511;DHT22;9384;48.044;11.616;2022-12-29T06:22:03;5.30;93.50
18511;DHT22;9384;48.044;11.616;2022-12-29T06:24:30;5.30;93.20
18511;DHT22;9384;48.044;11.616;2022-12-29T06:26:58;5.20;93.40
18511;DHT22;9384;48.044;11.616;2022-12-29T06:29:25;5.20;93.80
18511;DHT22;9384;48.044;11.616;2022-12-29T06:31:52;5.20;93.50
18511;DHT22;9384;48.044;11.616;2022-12-29T06:34:21;5.20;93.40
18511;DHT22;9384;48.044;11.616;2022-12-29T06:36:48;5.30;93.20
18511;DHT22;9384;48.044;11.616;2022-12-29T06:39:15;5.30;93.00
18511;DHT22;9384;48.044;11.616;2022-12-29T06:41:42;5.30;93.20
18511;DHT22;9384;48.044;11.616;2022-12-29T06:44:10;5.20;93.20
18511;DHT22;9384;48.044;11.616;2022-12-29T06:46:37;5.20;93.30
18511;DHT22;9384;48.044;11.616;2022-12-29T06:49:04;5.20;93.60
18511;DHT22;9384;48.044;11.616;2022-12-29T06:51:30;5.20;93.60
18511;DHT22;9384;48.044;11.616;2022-12-29T06:53:57;5.10;93.70
18511;DHT22;9384;48.044;11.616;2022-12-29T06:56:24;5.10;94.20
18511;DHT22;9384;48.044;11.616;2022-12-29T06:58:51;5.00;94.30
18511;DHT22;9384;48.044;11.616;2022-12-29T07:01:19;4.90;94.50
18511;DHT22;9384;48.044;11.616;2022-12-29T07:03:46;4.80;94.80
18511;DHT22;9384;48.044;11.616;2022-12-29T07:06:13;4.80;94.80
18511;DHT22;9384;48.044;11.616;2022-12-29T07:08:40;4.80;94.90
18511;DHT22;9384;48.044;11.616;2022-12-29T07:11:07;4.80;94.60
18511;DHT22;9384;48.044;11.616;2022-12-29T07:13:34;4.90;94.50
18511;DHT22;9384;48.044;11.616;2022-12-29T07:16:05;4.90;94.60
18511;DHT22;9384;48.044;11.616;2022-12-29T07:18:33;4.90;94.60
18511;DHT22;9384;48.044;11.616;2022-12-29T07:21:01;4.90;94.30
18511;DHT22;9384;48.044;11.616;2022-12-29T07:23:28;5.00;94.50
18511;DHT22;9384;48.044;11.616;2022-12-29T07:25:59;5.00;94.40
18511;DHT22;9384;48.044;11.616;2022-12-29T07:28:26;5.00;94.30
18511;DHT22;9384;48.044;11.616;2022-12-29T07:30:53;5.00;94.50
18511;DHT22;9384;48.044;11.616;2022-12-29T07:33:20;5.00;94.60
18511;DHT22;9384;48.044;11.616;2022-12-29T07:35:48;5.00;94.40
18511;DHT22;9384;48.044;11.616;2022-12-29T07:38:15;5.00;94.30
18511;DHT22;9384;48.044;11.616;2022-12-29T07:40:42;5.00;94.30
18511;DHT22;9384;48.044;11.616;2022-12-29T07:43:09;5.00;94.20
18511;DHT22;9384;48.044;11.616;2022-12-29T07:45:36;5.00;94.20
18511;DHT22;9384;48.044;11.616;2022-12-29T07:48:03;5.00;94.60
18511;DHT22;9384;48.044;11.616;2022-12-29T07:50:31;5.00;94.00
18511;DHT22;9384;48.044;11.616;2022-12-29T07:52:59;5.00;94.10
18511;DHT22;9384;48.044;11.616;2022-12-29T07:55:26;5.00;94.10
18511;DHT22;9384;48.044;11.616;2022-12-29T07:57:53;5.00;94.10
18511;DHT22;9384;48.044;11.616;2022-12-29T08:00:20;5.00;93.90
18511;DHT22;9384;48.044;11.616;2022-12-29T08:02:47;4.90;93.90
18511;DHT22;9384;48.044;11.616;2022-12-29T08:05:14;5.00;93.70
18511;DHT22;9384;48.044;11.616;2022-12-29T08:07:42;5.10;93.60
18511;DHT22;9384;48.044;11.616;2022-12-29T08:10:11;5.10;93.70
18511;DHT22;9384;48.044;11.616;2022-12-29T08:12:38;5.20;93.40
18511;DHT22;9384;48.044;11.616;2022-12-29T08:15:07;5.20;93.40
18511;DHT22;9384;48.044;11.616;2022-12-29T08:17:34;5.30;93.20
18511;DHT22;9384;48.044;11.616;2022-12-29T08:20:01;5.40;93.70
18511;DHT22;9384;48.044;11.616;2022-12-29T08:22:28;5.30;93.70
18511;DHT22;9384;48.044;11.616;2022-12-29T08:24:55;5.30;93.50
18511;DHT22;9384;48.044;11.616;2022-12-29T08:27:23;5.40;93.40
18511;DHT22;9384;48.044;11.616;2022-12-29T08:29:50;5.50;93.30
18511;DHT22;9384;48.044;11.616;2022-12-29T08:32:17;5.60;93.00
18511;DHT22;9384;48.044;11.616;2022-12-29T08:34:44;5.70;92.80
18511;DHT22;9384;48.044;11.616;2022-12-29T08:37:11;5.80;92.80
18511;DHT22;9384;48.044;11.616;2022-12-29T08:39:38;5.80;92.60
18511;DHT22;9384;48.044;11.616;2022-12-29T08:42:05;5.80;92.70
18511;DHT22;9384;48.044;11.616;2022-12-29T08:44:33;5.90;92.60
18511;DHT22;9384;48.044;11.616;2022-12-29T08:47:00;5.90;92.70
18511;DHT22;9384;48.044;11.616;2022-12-29T08:49:27;5.90;92.90
18511;DHT22;9384;48.044;11.616;2022-12-29T08:51:54;6.00;92.90
18511;DHT22;9384;48.044;11.616;2022-12-29T08:54:21;6.10;92.10
18511;DHT22;9384;48.044;11.616;2022-12-29T08:56:47;6.20;92.20
18511;DHT22;9384;48.044;11.616;2022-12-29T08:59:14;6.20;92.40
18511;DHT22;9384;48.044;11.616;2022-12-29T09:01:42;6.30;92.40
18511;DHT22;9384;48.044;11.616;2022-12-29T09:04:09;6.40;92.20
18511;DHT22;9384;48.044;11.616;2022-12-29T09:06:36;6.40;92.40
18511;DHT22;9384;48.044;11.616;2022-12-29T09:09:03;6.60;91.80
18511;DHT22;9384;48.044;11.616;2022-12-29T09:11:30;6.70;92.00
18511;DHT22;9384;48.044;11.616;2022-12-29T09:13:57;6.80;91.90
18511;DHT22;9384;48.044;11.616;2022-12-29T09:16:24;6.90;91.50
18511;DHT22;9384;48.044;11.616;2022-12-29T09:18:53;7.10;91.30
18511;DHT22;9384;48.044;11.616;2022-12-29T09:21:20;7.20;91.10
18511;DHT22;9384;48.044;11.616;2022-12-29T09:23:48;7.30;90.20
18511;DHT22;9384;48.044;11.616;2022-12-29T09:26:15;7.40;90.40
18511;DHT22;9384;48.044;11.616;2022-12-29T09:28:42;7.40;89.90
18511;DHT22;9384;48.044;11.616;2022-12-29T09:33:37;7.60;89.50
18511;DHT22;9384;48.044;11.616;2022-12-29T09:36:05;7.80;87.40
18511;DHT22;9384;48.044;11.616;2022-12-29T09:38:32;7.90;86.70
18511;DHT22;9384;48.044;11.616;2022-12-29T09:41:11;8.00;88.50
18511;DHT22;9384;48.044;11.616;2022-12-29T12:58:53;14.30;63.20
18511;DHT22;9384;48.044;11.616;2022-12-29T18:04:11;8.30;82.10
18511;DHT22;9384;48.044;11.616;2022-12-29T18:09:05;7.30;91.80
18511;DHT22;9384;48.044;11.616;2022-12-29T18:11:34;7.00;92.30
18511;DHT22;9384;48.044;11.616;2022-12-29T18:14:01;6.90;92.40
18511;DHT22;9384;48.044;11.616;2022-12-29T18:16:28;6.80;92.20
18511;DHT22;9384;48.044;11.616;2022-12-29T18:18:56;6.80;92.70
18511;DHT22;9384;48.044;11.616;2022-12-29T18:21:23;6.70;92.70
18511;DHT22;9384;48.044;11.616;2022-12-29T18:23:51;6.70;93.60
18511;DHT22;9384;48.044;11.616;2022-12-29T18:26:19;6.40;94.10
18511;DHT22;9384;48.044;11.616;2022-12-29T18:28:48;6.30;94.30
18511;DHT22;9384;48.044;11.616;2022-12-29T18:31:18;6.30;94.20
18511;DHT22;9384;48.044;11.616;2022-12-29T18:33:46;6.30;93.90
18511;DHT22;9384;48.044;11.616;2022-12-29T18:36:15;6.30;94.20
18511;DHT22;9384;48.044;11.616;2022-12-29T18:38:42;6.20;94.50
18511;DHT22;9384;48.044;11.616;2022-12-29T18:41:14;6.10;94.40
18511;DHT22;9384;48.044;11.616;2022-12-29T18:43:42;6.10;94.00
18511;DHT22;9384;48.044;11.616;2022-12-29T18:46:09;6.10;93.80
18511;DHT22;9384;48.044;11.616;2022-12-29T18:48:36;6.10;94.00
18511;DHT22;9384;48.044;11.616;2022-12-29T18:51:04;6.00;94.10
18511;DHT22;9384;48.044;11.616;2022-12-29T18:53:32;6.00;94.30
18511;DHT22;9384;48.044;11.616;2022-12-29T18:56:02;6.00;94.30
18511;DHT22;9384;48.044;11.616;2022-12-29T18:58:29;5.90;94.30
18511;DHT22;9384;48.044;11.616;2022-12-29T19:00:56;5.90;94.40
18511;DHT22;9384;48.044;11.616;2022-12-29T19:03:22;5.90;94.30
18511;DHT22;9384;48.044;11.616;2022-12-29T19:05:50;5.90;94.30
18511;DHT22;9384;48.044;11.616;2022-12-29T19:08:17;6.00;94.00
18511;DHT22;9384;48.044;11.616;2022-12-29T19:10:46;6.00;94.40
18511;DHT22;9384;48.044;11.616;2022-12-29T19:13:15;5.90;94.80
18511;DHT22;9384;48.044;11.616;2022-12-29T19:15:43;5.80;94.60
18511;DHT22;9384;48.044;11.616;2022-12-29T19:18:17;5.80;94.70
18511;DHT22;9384;48.044;11.616;2022-12-29T19:20:45;5.80;95.00
18511;DHT22;9384;48.044;11.616;2022-12-29T19:23:14;5.80;94.40
18511;DHT22;9384;48.044;11.616;2022-12-29T19:25:42;5.80;94.30
18511;DHT22;9384;48.044;11.616;2022-12-29T19:28:15;5.90;94.10
18511;DHT22;9384;48.044;11.616;2022-12-29T19:30:44;5.90;94.30
18511;DHT22;9384;48.044;11.616;2022-12-29T19:33:11;5.90;94.00
18511;DHT22;9384;48.044;11.616;2022-12-29T19:35:38;6.20;92.90
18511;DHT22;9384;48.044;11.616;2022-12-29T19:38:05;6.30;92.80
18511;DHT22;9384;48.044;11.616;2022-12-29T19:40:32;6.40;92.50
18511;DHT22;9384;48.044;11.616;2022-12-29T19:42:59;6.50;92.20
18511;DHT22;9384;48.044;11.616;2022-12-29T19:45:27;6.60;91.80
18511;DHT22;9384;48.044;11.616;2022-12-29T19:47:54;6.70;91.40
18511;DHT22;9384;48.044;11.616;2022-12-29T19:50:20;6.80;91.30
18511;DHT22;9384;48.044;11.616;2022-12-29T19:52:47;7.00;91.00
18511;DHT22;9384;48.044;11.616;2022-12-29T19:55:15;7.20;91.00
18511;DHT22;9384;48.044;11.616;2022-12-29T19:57:42;7.20;91.20
18511;DHT22;9384;48.044;11.616;2022-12-29T20:00:11;7.30;91.10
18511;DHT22;9384;48.044;11.616;2022-12-29T20:02:41;7.40;90.90
18511;DHT22;9384;48.044;11.616;2022-12-29T20:05:08;7.40;90.70
18511;DHT22;9384;48.044;11.616;2022-12-29T20:07:35;7.50;90.60
18511;DHT22;9384;48.044;11.616;2022-12-29T20:10:03;7.50;90.90
18511;DHT22;9384;48.044;11.616;2022-12-29T20:12:30;7.60;90.30
18511;DHT22;9384;48.044;11.616;2022-12-29T20:14:57;7.70;90.00
18511;DHT22;9384;48.044;11.616;2022-12-29T20:17:24;7.70;89.60
18511;DHT22;9384;48.044;11.616;2022-12-29T20:19:52;7.70;90.20
18511;DHT22;9384;48.044;11.616;2022-12-29T20:22:19;7.70;90.50
18511;DHT22;9384;48.044;11.616;2022-12-29T20:24:47;7.60;90.40
18511;DHT22;9384;48.044;11.616;2022-12-29T20:27:14;7.60;90.60
18511;DHT22;9384;48.044;11.616;2022-12-29T20:29:41;7.50;90.60
18511;DHT22;9384;48.044;11.616;2022-12-29T20:32:10;7.60;90.20
18511;DHT22;9384;48.044;11.616;2022-12-29T20:34:38;7.60;90.00
18511;DHT22;9384;48.044;11.616;2022-12-29T20:37:06;7.60;90.00
18511;DHT22;9384;48.044;11.616;2022-12-29T20:39:33;7.50;90.30
18511;DHT22;9384;48.044;11.616;2022-12-29T20:42:00;7.50;90.40
18511;DHT22;9384;48.044;11.616;2022-12-29T20:44:27;7.50;90.70
18511;DHT22;9384;48.044;11.616;2022-12-29T20:46:55;7.50;90.90
18511;DHT22;9384;48.044;11.616;2022-12-29T20:49:22;7.50;91.20
18511;DHT22;9384;48.044;11.616;2022-12-29T20:51:49;7.50;91.60
18511;DHT22;9384;48.044;11.616;2022-12-29T20:54:18;7.50;91.60
18511;DHT22;9384;48.044;11.616;2022-12-29T20:56:45;7.50;91.50
18511;DHT22;9384;48.044;11.616;2022-12-29T20:59:13;7.50;91.70
18511;DHT22;9384;48.044;11.616;2022-12-29T21:01:41;7.50;91.90
18511;DHT22;9384;48.044;11.616;2022-12-29T21:04:08;7.50;91.80
18511;DHT22;9384;48.044;11.616;2022-12-29T21:06:35;7.50;91.50
18511;DHT22;9384;48.044;11.616;2022-12-29T21:09:02;7.50;91.50
18511;DHT22;9384;48.044;11.616;2022-12-29T21:11:30;7.50;91.40
18511;DHT22;9384;48.044;11.616;2022-12-29T21:13:57;7.50;91.40
18511;DHT22;9384;48.044;11.616;2022-12-29T21:16:24;7.50;91.50
18511;DHT22;9384;48.044;11.616;2022-12-29T21:18:51;7.50;91.60
18511;DHT22;9384;48.044;11.616;2022-12-29T21:21:20;7.40;91.50
18511;DHT22;9384;48.044;11.616;2022-12-29T21:23:47;7.40;91.50
18511;DHT22;9384;48.044;11.616;2022-12-29T21:26:16;7.40;91.30
18511;DHT22;9384;48.044;11.616;2022-12-29T21:28:44;7.40;91.50
18511;DHT22;9384;48.044;11.616;2022-12-29T21:31:24;7.50;91.20
18511;DHT22;9384;48.044;11.616;2022-12-29T21:33:52;7.50;91.30
18511;DHT22;9384;48.044;11.616;2022-12-29T21:36:19;7.50;91.40
18511;DHT22;9384;48.044;11.616;2022-12-29T21:38:46;7.50;91.60
18511;DHT22;9384;48.044;11.616;2022-12-29T21:41:14;7.50;91.90
18511;DHT22;9384;48.044;11.616;2022-12-29T21:43:43;7.50;92.00
18511;DHT22;9384;48.044;11.616;2022-12-29T21:46:32;7.50;92.20
18511;DHT22;9384;48.044;11.616;2022-12-29T21:48:58;7.50;92.40
18511;DHT22;9384;48.044;11.616;2022-12-29T21:51:25;7.50;92.70
18511;DHT22;9384;48.044;11.616;2022-12-29T21:54:09;7.50;93.10
18511;DHT22;9384;48.044;11.616;2022-12-29T21:56:53;7.50;93.50
18511;DHT22;9384;48.044;11.616;2022-12-29T21:59:22;7.50;93.80
18511;DHT22;9384;48.044;11.616;2022-12-29T22:02:16;7.60;94.10
18511;DHT22;9384;48.044;11.616;2022-12-29T22:05:02;7.70;94.50
18511;DHT22;9384;48.044;11.616;2022-12-29T22:07:46;7.80;95.20
18511;DHT22;9384;48.044;11.616;2022-12-29T22:10:30;7.80;95.00
18511;DHT22;9384;48.044;11.616;2022-12-29T22:13:14;7.70;95.10
18511;DHT22;9384;48.044;11.616;2022-12-29T22:15:42;7.70;95.40
18511;DHT22;9384;48.044;11.616;2022-12-29T22:18:09;7.60;95.60
18511;DHT22;9384;48.044;11.616;2022-12-29T22:20:36;7.60;95.90
18511;DHT22;9384;48.044;11.616;2022-12-29T22:23:03;7.60;96.00
18511;DHT22;9384;48.044;11.616;2022-12-29T22:25:30;7.50;96.30
18511;DHT22;9384;48.044;11.616;2022-12-29T22:27:57;7.50;95.60
18511;DHT22;9384;48.044;11.616;2022-12-29T22:30:24;7.60;95.50
18511;DHT22;9384;48.044;11.616;2022-12-29T22:32:53;7.60;95.30
18511;DHT22;9384;48.044;11.616;2022-12-29T22:35:21;7.60;95.40
18511;DHT22;9384;48.044;11.616;2022-12-29T22:37:47;7.60;95.50
18511;DHT22;9384;48.044;11.616;2022-12-29T22:40:14;7.60;95.60
18511;DHT22;9384;48.044;11.616;2022-12-29T22:42:41;7.60;95.80
18511;DHT22;9384;48.044;11.616;2022-12-29T22:45:09;7.60;96.40
18511;DHT22;9384;48.044;11.616;2022-12-29T22:47:36;7.70;96.00
18511;DHT22;9384;48.044;11.616;2022-12-29T22:50:05;7.70;96.20
18511;DHT22;9384;48.044;11.616;2022-12-29T22:52:32;7.70;96.30
18511;DHT22;9384;48.044;11.616;2022-12-29T22:54:59;7.80;96.40
18511;DHT22;9384;48.044;11.616;2022-12-29T22:57:26;7.80;96.50
18511;DHT22;9384;48.044;11.616;2022-12-29T22:59:54;7.80;96.60
18511;DHT22;9384;48.044;11.616;2022-12-29T23:02:21;7.70;96.70
18511;DHT22;9384;48.044;11.616;2022-12-29T23:04:48;7.70;96.80
18511;DHT22;9384;48.044;11.616;2022-12-29T23:07:16;7.70;96.90
18511;DHT22;9384;48.044;11.616;2022-12-29T23:09:43;7.70;97.00
18511;DHT22;9384;48.044;11.616;2022-12-29T23:12:10;7.70;97.00
18511;DHT22;9384;48.044;11.616;2022-12-29T23:14:37;7.60;97.20
18511;DHT22;9384;48.044;11.616;2022-12-29T23:17:04;7.70;97.40
18511;DHT22;9384;48.044;11.616;2022-12-29T23:19:31;7.70;97.60
18511;DHT22;9384;48.044;11.616;2022-12-29T23:21:58;7.70;97.80
18511;DHT22;9384;48.044;11.616;2022-12-29T23:24:26;7.70;98.10
18511;DHT22;9384;48.044;11.616;2022-12-29T23:26:53;7.70;98.30
18511;DHT22;9384;48.044;11.616;2022-12-29T23:29:19;7.70;98.40
18511;DHT22;9384;48.044;11.616;2022-12-29T23:31:47;7.70;98.70
18511;DHT22;9384;48.044;11.616;2022-12-29T23:34:14;7.70;98.90
18511;DHT22;9384;48.044;11.616;2022-12-29T23:36:41;7.70;99.00
18511;DHT22;9384;48.044;11.616;2022-12-29T23:39:08;7.80;99.20
18511;DHT22;9384;48.044;11.616;2022-12-29T23:41:37;7.80;99.30
18511;DHT22;9384;48.044;11.616;2022-12-29T23:44:04;7.80;99.60
18511;DHT22;9384;48.044;11.616;2022-12-29T23:46:30;7.80;99.60
18511;DHT22;9384;48.044;11.616;2022-12-29T23:48:57;7.80;99.70
18511;DHT22;9384;48.044;11.616;2022-12-29T23:51:24;7.80;99.80
18511;DHT22;9384;48.044;11.616;2022-12-29T23:53:51;7.80;99.90
18511;DHT22;9384;48.044;11.616;2022-12-29T23:56:19;7.80;99.90
18511;DHT22;9384;48.044;11.616;2022-12-29T23:58:48;7.70;99.90
